Austin, CO

7:35 PM MDT on September 16, 2014 (GMT -0600)
KCOAUSTI3 | Change Station
CLOSE
Current Station
Personal Weather Station
Location: Austin, CO
Elevation: 5837 ft
Nearby Weather Stations

Elev 5837 ft 38.82 °N, 107.95 °W | Updated 2 minutes ago

Clear
Clear
75.7 °F
Feels Like 77 °F
N
2.2
Wind Variable Wind from North

Today
High -- | Low -- °F
--% Chance of Precip.
Yesterday
High -- | Low -- °F
Precip. -- in
6:54 AM 7:18 PM
Last Quarter, 40% visible
Pressure 30.08 in
Visibility 7.0 miles
Clouds Clear
Heat Index 77 °F
Dew Point 39 °F
Humidity 27%
Rainfall 0.00 in
Snow Depth 0 in , 1 in , 0 in
UV 0 out of 12
Pollen 5.50 out of 12
Air Quality Not available.
Flu Activity Not available.
METAR KAJZ 170115Z AUTO 28009KT 7SM CLR 29/01 A3008 RMK AO2 T02910010

More Conditions Fewer Conditions

Pressure 30.08 in
Visibility 7.0 miles
Clouds Clear
Heat Index 77 °F
Dew Point 39 °F
Humidity 27%
Rainfall 0.00 in
Snow Depth 0 in , 1 in , 0 in
UV 0 out of 12
Pollen 5.50 out of 12
Air Quality Not available.
Flu Activity Not available.
METAR KAJZ 170115Z AUTO 28009KT 7SM CLR 29/01 A3008 RMK AO2 T02910010

More Conditions Fewer Conditions

10-Day Weather Forecast

Almanac

Astronomy

Sep. 16, 2014 Rise Set
Actual Time 6:54 AM MDT 7:18 PM MDT
Civil Twilight 6:27 AM MDT 7:45 PM MDT
Nautical Twilight 5:56 AM MDT 8:16 PM MDT
Astronomical Twilight 5:24 AM MDT 8:48 PM MDT
Moon 12:09 AM MDT (9/16) 2:42 PM MDT (9/16)
Length of Visible Light 13h 17m
Length of Day
12h 24m
Tomorrow will be 2m 30s shorter.
Last Quarter, 40% of the Moon is Illuminated
Today
Last Quarter
Sep 24
New
Oct 1
First Quarter
Oct 8
Full
Oct 15
Last Quarter

Today's Extremes

State Highs State Lows

Community

WunderPhotos

Upload Photos

1,753,943 photos uploaded!

Nearby

Snow Depth

Station Depth Elevation
Grayback 0 in 11620 ft
Mancos 1 in 10000 ft
Mccoy Park 10 in 9480 ft
Lone Cone 2 in 9600 ft
Columbus Basin 0 in 10785 ft

Earthquake Activity

City Distance Mag. Time & Date
No recent earthquake activity has been reported nearby.
Minimum magnitude displayed is 2.5.

Coastal Water Temperatures

Place Temperature
No Stations Reporting

Nearby Weather Stations